Yekaterinburg, Russia
Current Conditions -  °F | °C
As of 6:30 AM on Friday 28 Nov 2014 (Local Time) from USSS Reporting Station
Scattered Clouds Scattered Clouds  
Wind Chill: -11°   Ceiling: Unl
Heat Index: -11°   Visibility: 4mi
Dew Point: -15°   Wind: 0mph
Humidity: 84%   Direction: NA
Pressure: 30.5"   Gusts: NA
Location:  56.85°N, 60.6°E
Report Text: USSS 280130Z 00000MPS 7000 FEW003 SCT200 M24/M26 Q1033 76810350TEMPO BKN003 RMK QBB100 QFE754
Loading
Personal Weather Stations






























Interactive Weather Map New forecast layout! Learn more

10-Day Weather Forecast

Advertisements
Track Severe Weather on mobile